Time;durP1;ratioP1;P1;durP2;ratioP2;P2;SDS_P1;SDS_P2;PMS_P1;PMS_P2;Temp;Humidity;BMP_temperature;BMP_pressure;BME280_temperature;BME280_humidity;BME280_pressure;Samples;Min_cycle;Max_cycle;Signal;HPM_P1;HPM_P2
2021/09/15 14:53:35;;;;;;;7.40;6.70;;;;;;;;;;4987852;28;20583;-77
2021/09/15 14:56:02;;;;;;;8.10;7.30;;;;;;;;;;4989734;28;20440;-78
2021/09/15 14:58:30;;;;;;;10.20;7.67;;;;;;;;;;4993165;28;20448;-79
2021/09/15 15:00:59;;;;;;;8.83;7.80;;;;;;;;;;4993343;28;20495;-78
2021/09/15 15:03:31;;;;;;;7.63;6.93;;;;;;;;;;4993625;28;20436;-79
2021/09/15 15:05:59;;;;;;;9.93;8.17;;;;;;;;;;4993330;28;20452;-78
2021/09/15 15:10:52;;;;;;;11.33;10.23;;;;;;;;;;4992223;28;20994;-79
2021/09/15 15:13:20;;;;;;;10.73;9.63;;;;;;;;;;4989227;28;20200;-81
2021/09/15 15:15:48;;;;;;;13.90;12.50;;;;;;;;;;4992230;28;20440;-81
2021/09/15 15:18:16;;;;;;;13.77;12.47;;;;;;;;;;4993082;28;20450;-80
2021/09/15 15:20:43;;;;;;;14.60;13.20;;;;;;;;;;4993288;28;20463;-81
2021/09/15 15:23:12;;;;;;;16.43;13.50;;;;;;;;;;4994163;28;20450;-78
2021/09/15 15:25:39;;;;;;;16.77;14.87;;;;;;;;;;4995340;28;20448;-80
2021/09/15 15:28:06;;;;;;;19.40;16.40;;;;;;;;;;4995166;28;20575;-81
2021/09/15 15:30:34;;;;;;;18.20;16.40;;;;;;;;;;4988425;28;20480;-79
2021/09/15 15:33:01;;;;;;;16.47;14.87;;;;;;;;;;4988026;28;20464;-80
2021/09/15 15:35:29;;;;;;;20.73;17.30;;;;;;;;;;4992300;28;20454;-81
2021/09/15 15:37:56;;;;;;;22.50;20.20;;;;;;;;;;4992730;28;20458;-78
2021/09/15 15:40:24;;;;;;;17.83;16.00;;;;;;;;;;4992664;28;20464;-81
2021/09/15 15:42:52;;;;;;;19.37;17.30;;;;;;;;;;4993123;28;20456;-80
2021/09/15 15:45:19;;;;;;;18.10;16.33;;;;;;;;;;4994416;28;20530;-79
2021/09/15 15:47:46;;;;;;;25.77;19.80;;;;;;;;;;4993567;28;20487;-78
2021/09/15 15:50:14;;;;;;;21.03;17.70;;;;;;;;;;4994799;28;20460;-80
2021/09/15 15:52:41;;;;;;;28.13;24.30;;;;;;;;;;4990582;28;20464;-79
2021/09/15 15:55:10;;;;;;;29.83;24.23;;;;;;;;;;4987983;28;20793;-78
2021/09/15 15:57:39;;;;;;;23.83;21.37;;;;;;;;;;4989434;28;20499;-76
2021/09/15 16:00:07;;;;;;;25.57;22.77;;;;;;;;;;4991404;28;20841;-79
2021/09/15 16:02:34;;;;;;;24.40;21.20;;;;;;;;;;4972432;28;20468;-78
2021/09/15 16:05:01;;;;;;;25.17;22.37;;;;;;;;;;4992841;28;20929;-79
2021/09/15 16:07:28;;;;;;;22.50;20.30;;;;;;;;;;4994328;28;20490;-77
2021/09/15 16:09:56;;;;;;;23.00;20.60;;;;;;;;;;4994409;28;20470;-79
2021/09/15 16:12:23;;;;;;;26.57;23.73;;;;;;;;;;4986925;28;20482;-83
2021/09/15 16:14:51;;;;;;;23.63;21.03;;;;;;;;;;4989291;28;20460;-79
2021/09/15 16:17:18;;;;;;;30.90;27.60;;;;;;;;;;4988215;28;20432;-79
2021/09/15 16:19:46;;;;;;;31.17;27.87;;;;;;;;;;4988243;28;20475;-79
2021/09/15 16:22:13;;;;;;;28.63;25.57;;;;;;;;;;4987993;28;20974;-77
2021/09/15 16:24:40;;;;;;;28.30;25.13;;;;;;;;;;4992019;28;20945;-78
2021/09/15 16:27:07;;;;;;;25.37;22.77;;;;;;;;;;4992437;28;20487;-79
2021/09/15 16:29:34;;;;;;;29.10;25.93;;;;;;;;;;4989457;28;20475;-80
2021/09/15 16:32:03;;;;;;;25.53;22.83;;;;;;;;;;4992207;28;20460;-81
2021/09/15 16:34:30;;;;;;;24.00;21.60;;;;;;;;;;4993017;28;20817;-81
2021/09/15 16:36:57;;;;;;;26.13;23.63;;;;;;;;;;4991210;28;20463;-82
2021/09/15 16:39:24;;;;;;;25.40;22.83;;;;;;;;;;4986960;28;20563;-79
2021/09/15 16:41:52;;;;;;;22.17;18.70;;;;;;;;;;4990380;28;20804;-83
2021/09/15 16:44:19;;;;;;;24.40;22.00;;;;;;;;;;4993078;28;20475;-81
2021/09/15 16:46:46;;;;;;;20.23;18.27;;;;;;;;;;4993125;28;20479;-85
2021/09/15 16:49:15;;;;;;;23.07;20.73;;;;;;;;;;4995351;28;20487;-79
2021/09/15 16:51:42;;;;;;;18.40;16.60;;;;;;;;;;4996446;28;20493;-83
2021/09/15 16:54:10;;;;;;;18.83;16.93;;;;;;;;;;4996772;28;20459;-80
2021/09/15 16:56:37;;;;;;;16.00;14.50;;;;;;;;;;4995860;28;20468;-81
2021/09/15 16:59:04;;;;;;;13.40;12.03;;;;;;;;;;4995336;28;20455;-83
2021/09/15 17:01:31;;;;;;;13.53;12.23;;;;;;;;;;4991618;28;20917;-83
2021/09/15 17:03:59;;;;;;;12.80;11.50;;;;;;;;;;4990324;28;20463;-81
2021/09/15 17:06:27;;;;;;;11.73;10.63;;;;;;;;;;4987868;28;21941;-80
2021/09/15 17:08:54;;;;;;;11.37;10.27;;;;;;;;;;4989072;28;20959;-80
2021/09/15 17:11:21;;;;;;;11.07;10.07;;;;;;;;;;4993416;28;20466;-80
2021/09/15 17:13:49;;;;;;;12.07;9.73;;;;;;;;;;4991407;28;20464;-79
2021/09/15 17:16:16;;;;;;;10.17;9.17;;;;;;;;;;4990041;28;20546;-79
2021/09/15 17:18:43;;;;;;;9.03;8.13;;;;;;;;;;4992839;28;20470;-79
2021/09/15 17:21:10;;;;;;;11.43;9.40;;;;;;;;;;4995518;28;20443;-79
2021/09/15 17:23:39;;;;;;;13.13;8.90;;;;;;;;;;4992116;28;20459;-80
2021/09/15 17:26:06;;;;;;;8.30;7.60;;;;;;;;;;4993499;28;20465;-85
2021/09/15 17:28:34;;;;;;;11.80;7.90;;;;;;;;;;4994897;28;20498;-82
2021/09/15 17:31:01;;;;;;;11.80;9.67;;;;;;;;;;4994942;28;20455;-86
2021/09/15 17:33:29;;;;;;;9.00;8.07;;;;;;;;;;4996952;28;20856;-83
2021/09/15 17:35:56;;;;;;;9.93;8.93;;;;;;;;;;4991646;28;20450;-82
2021/09/15 17:38:23;;;;;;;8.67;7.80;;;;;;;;;;4990600;28;20442;-83
2021/09/15 17:40:51;;;;;;;9.97;8.00;;;;;;;;;;4994262;28;20812;-81
2021/09/15 17:43:19;;;;;;;8.77;6.90;;;;;;;;;;4995932;28;20458;-82
2021/09/15 17:45:46;;;;;;;9.00;7.63;;;;;;;;;;4994119;28;20456;-84
2021/09/15 17:48:13;;;;;;;10.13;8.17;;;;;;;;;;4995126;28;20484;-83
2021/09/15 17:50:40;;;;;;;8.60;7.67;;;;;;;;;;4995705;28;20463;-82
2021/09/15 17:53:08;;;;;;;10.30;7.23;;;;;;;;;;4996242;28;20543;-84
2021/09/15 17:55:35;;;;;;;7.10;6.40;;;;;;;;;;4993254;28;20474;-81
2021/09/15 17:58:04;;;;;;;9.50;7.57;;;;;;;;;;4994769;28;20451;-80
2021/09/15 18:00:32;;;;;;;7.67;6.90;;;;;;;;;;4990092;28;20977;-80
2021/09/15 18:03:00;;;;;;;7.10;6.40;;;;;;;;;;4993730;28;20443;-81
2021/09/15 18:05:27;;;;;;;7.27;6.53;;;;;;;;;;4994486;28;20463;-81
2021/09/15 18:07:54;;;;;;;10.57;7.40;;;;;;;;;;4994044;28;20488;-82
2021/09/15 18:10:22;;;;;;;6.43;5.77;;;;;;;;;;4993400;28;20475;-83
2021/09/15 18:12:50;;;;;;;7.77;7.07;;;;;;;;;;4967503;28;20950;-84
2021/09/15 18:15:19;;;;;;;9.97;6.03;;;;;;;;;;4986850;28;20805;-86
2021/09/15 18:17:46;;;;;;;8.60;5.80;;;;;;;;;;4991910;28;20502;-82
2021/09/15 18:20:13;;;;;;;9.63;5.83;;;;;;;;;;4993225;28;20839;-81
2021/09/15 18:22:40;;;;;;;8.13;6.30;;;;;;;;;;4993935;28;20778;-85
2021/09/15 18:25:25;;;;;;;6.10;5.50;;;;;;;;;;4994129;28;20470;-84
2021/09/15 18:27:52;;;;;;;8.70;6.00;;;;;;;;;;4973210;28;20485;-80
2021/09/15 18:30:21;;;;;;;8.60;6.07;;;;;;;;;;5005827;28;20474;-83
2021/09/15 18:32:48;;;;;;;6.03;5.47;;;;;;;;;;4993279;28;20466;-81
2021/09/15 18:35:15;;;;;;;5.40;4.90;;;;;;;;;;4988855;28;20444;-84
2021/09/15 18:37:43;;;;;;;9.20;5.53;;;;;;;;;;4991608;28;20848;-83
2021/09/15 18:40:10;;;;;;;8.10;5.27;;;;;;;;;;4993206;28;20546;-84
2021/09/15 18:42:38;;;;;;;6.00;5.40;;;;;;;;;;4992081;28;20456;-82
2021/09/15 18:45:05;;;;;;;7.20;4.90;;;;;;;;;;4991806;28;20459;-83
2021/09/15 18:47:34;;;;;;;10.53;5.40;;;;;;;;;;4985867;28;20484;-80
2021/09/15 18:50:01;;;;;;;7.27;5.80;;;;;;;;;;4987863;28;20474;-84
2021/09/15 18:52:28;;;;;;;9.00;6.30;;;;;;;;;;4990852;28;20837;-83
2021/09/15 18:55:00;;;;;;;7.10;6.03;;;;;;;;;;4991695;28;20936;-80
2021/09/15 18:57:27;;;;;;;6.33;5.73;;;;;;;;;;4992576;28;20444;-82
2021/09/15 18:59:55;;;;;;;7.40;5.60;;;;;;;;;;4991131;28;20456;-84
2021/09/15 19:02:22;;;;;;;6.30;5.43;;;;;;;;;;4995642;28;20450;-79
2021/09/15 19:04:51;;;;;;;7.00;5.63;;;;;;;;;;4993024;28;20435;-81
2021/09/15 19:07:18;;;;;;;6.90;5.83;;;;;;;;;;4995814;28;20426;-80
2021/09/15 19:09:47;;;;;;;6.67;5.27;;;;;;;;;;4993483;28;20552;-80
2021/09/15 19:12:14;;;;;;;5.70;4.90;;;;;;;;;;4988847;28;20440;-81
2021/09/15 19:14:41;;;;;;;7.27;5.43;;;;;;;;;;4989422;28;20439;-83
2021/09/15 19:17:08;;;;;;;5.80;5.20;;;;;;;;;;4992712;28;20447;-81
2021/09/15 19:19:35;;;;;;;6.90;5.30;;;;;;;;;;4992866;28;20471;-83
2021/09/15 19:22:04;;;;;;;9.50;5.83;;;;;;;;;;4993116;28;20436;-85
2021/09/15 19:24:31;;;;;;;7.07;6.10;;;;;;;;;;4990285;28;20470;-81
2021/09/15 19:26:58;;;;;;;8.40;5.83;;;;;;;;;;4994857;28;20446;-81
2021/09/15 19:29:25;;;;;;;7.00;6.00;;;;;;;;;;4993888;28;20495;-84
2021/09/15 19:31:54;;;;;;;6.13;5.60;;;;;;;;;;4994278;28;20520;-84
2021/09/15 19:34:22;;;;;;;6.57;5.87;;;;;;;;;;4989649;28;20439;-83
2021/09/15 19:36:49;;;;;;;8.07;6.80;;;;;;;;;;4971216;28;20511;-85
2021/09/15 19:39:18;;;;;;;7.10;6.40;;;;;;;;;;4975669;28;20894;-83
2021/09/15 19:41:46;;;;;;;8.60;7.63;;;;;;;;;;4992116;28;20447;-85
2021/09/15 19:44:13;;;;;;;7.80;6.77;;;;;;;;;;4991947;28;20464;-83
2021/09/15 19:46:40;;;;;;;8.97;7.83;;;;;;;;;;4991280;28;20969;-82
2021/09/15 19:49:07;;;;;;;10.20;8.40;;;;;;;;;;4991650;28;20495;-82
2021/09/15 19:51:34;;;;;;;10.17;8.53;;;;;;;;;;4992284;28;20471;-82
2021/09/15 19:54:01;;;;;;;8.73;7.90;;;;;;;;;;4992662;28;20467;-82
2021/09/15 19:56:30;;;;;;;11.23;9.77;;;;;;;;;;4990781;28;20892;-81
2021/09/15 19:58:58;;;;;;;10.60;8.63;;;;;;;;;;4987722;28;20552;-80
2021/09/15 20:01:26;;;;;;;10.60;8.27;;;;;;;;;;4981549;28;20436;-81
2021/09/15 20:03:53;;;;;;;8.17;7.37;;;;;;;;;;4976232;28;20467;-82
2021/09/15 20:06:20;;;;;;;9.17;7.40;;;;;;;;;;4992335;28;20524;-86
2021/09/15 20:08:48;;;;;;;10.60;8.40;;;;;;;;;;4988757;28;20495;-84
2021/09/15 20:11:15;;;;;;;9.27;7.87;;;;;;;;;;4989882;28;20952;-85
2021/09/15 20:13:44;;;;;;;11.10;6.63;;;;;;;;;;4993752;28;20470;-85
2021/09/15 20:16:11;;;;;;;9.70;8.20;;;;;;;;;;4973682;28;20946;-86
2021/09/15 20:18:39;;;;;;;11.10;6.70;;;;;;;;;;4966671;28;20767;-82
2021/09/15 20:21:06;;;;;;;10.40;6.70;;;;;;;;;;4987372;28;20464;-84
2021/09/15 20:23:34;;;;;;;10.10;7.67;;;;;;;;;;4990827;28;20415;-84
2021/09/15 20:26:01;;;;;;;11.30;7.43;;;;;;;;;;4991550;28;20952;-85
2021/09/15 20:28:29;;;;;;;10.80;6.80;;;;;;;;;;4992168;28;20519;-81
2021/09/15 20:30:58;;;;;;;11.43;7.83;;;;;;;;;;4991803;28;20982;-84
2021/09/15 20:33:25;;;;;;;10.47;7.20;;;;;;;;;;4976312;28;20506;-83
2021/09/15 20:35:53;;;;;;;10.07;7.07;;;;;;;;;;4993766;28;20458;-83
2021/09/15 20:38:20;;;;;;;12.63;7.40;;;;;;;;;;4973307;28;20449;-85
2021/09/15 20:40:48;;;;;;;7.47;6.67;;;;;;;;;;4989866;28;20515;-83
2021/09/15 20:43:18;;;;;;;9.40;7.07;;;;;;;;;;4987378;28;20418;-83
2021/09/15 20:45:45;;;;;;;13.40;6.63;;;;;;;;;;4972690;28;20436;-83
2021/09/15 20:48:14;;;;;;;7.93;5.67;;;;;;;;;;4991425;28;20472;-82
2021/09/15 20:50:41;;;;;;;6.80;5.63;;;;;;;;;;4991941;28;20459;-82
2021/09/15 20:53:08;;;;;;;6.57;4.73;;;;;;;;;;4991684;28;20848;-83
2021/09/15 20:55:37;;;;;;;8.13;4.47;;;;;;;;;;4993049;28;20463;-84
2021/09/15 20:58:05;;;;;;;9.27;5.43;;;;;;;;;;4993884;28;20930;-82
2021/09/15 21:00:32;;;;;;;7.33;5.03;;;;;;;;;;4993657;28;20510;-84
2021/09/15 21:02:59;;;;;;;5.67;4.30;;;;;;;;;;4992786;28;20526;-85
2021/09/15 21:05:28;;;;;;;7.57;4.30;;;;;;;;;;4987849;28;20454;-81
2021/09/15 21:07:55;;;;;;;5.50;4.03;;;;;;;;;;4989793;28;20431;-82
2021/09/15 21:10:22;;;;;;;7.00;4.30;;;;;;;;;;4992147;28;20825;-86
2021/09/15 21:12:49;;;;;;;5.50;4.40;;;;;;;;;;4992114;28;20436;-83
2021/09/15 21:15:17;;;;;;;3.97;3.53;;;;;;;;;;4992211;28;20925;-83
2021/09/15 21:17:44;;;;;;;4.40;3.50;;;;;;;;;;4992793;28;20456;-83
2021/09/15 21:20:12;;;;;;;3.13;2.87;;;;;;;;;;4993770;28;20467;-84
2021/09/15 21:22:41;;;;;;;3.93;2.80;;;;;;;;;;4993910;28;20922;-83
2021/09/15 21:25:15;;;;;;;5.60;3.20;;;;;;;;;;4993482;28;20444;-85
2021/09/15 21:27:45;;;;;;;3.83;2.60;;;;;;;;;;4987381;28;20815;-85
2021/09/15 21:30:13;;;;;;;4.70;3.00;;;;;;;;;;4992617;28;21031;-83
2021/09/15 21:32:40;;;;;;;4.77;2.83;;;;;;;;;;4995059;28;20419;-86
2021/09/15 21:35:07;;;;;;;7.33;3.10;;;;;;;;;;4995168;28;20451;-85
2021/09/15 21:37:35;;;;;;;3.90;2.50;;;;;;;;;;4974678;28;20441;-83
2021/09/15 21:40:04;;;;;;;4.60;2.73;;;;;;;;;;4991954;28;20970;-84
2021/09/15 21:42:32;;;;;;;5.50;2.80;;;;;;;;;;4996714;28;20446;-84
2021/09/15 21:44:59;;;;;;;4.97;2.80;;;;;;;;;;4997298;28;20802;-87
2021/09/15 21:47:26;;;;;;;4.07;2.47;;;;;;;;;;4998237;28;20418;-85
2021/09/15 21:49:53;;;;;;;2.27;2.07;;;;;;;;;;4994255;28;20483;-84
2021/09/15 21:52:20;;;;;;;3.47;2.07;;;;;;;;;;4993807;28;20973;-86
2021/09/15 21:54:47;;;;;;;3.60;2.13;;;;;;;;;;4996799;28;20444;-83
2021/09/15 21:57:16;;;;;;;2.13;1.93;;;;;;;;;;4995807;28;20469;-86
2021/09/15 21:59:43;;;;;;;3.47;1.90;;;;;;;;;;4995547;28;20466;-85
2021/09/15 22:02:10;;;;;;;8.50;2.50;;;;;;;;;;4995580;28;20455;-84
2021/09/15 22:04:37;;;;;;;4.00;2.10;;;;;;;;;;4997395;28;20418;-86
2021/09/15 22:07:06;;;;;;;3.03;1.93;;;;;;;;;;4997036;28;20445;-86
2021/09/15 22:09:34;;;;;;;4.43;2.27;;;;;;;;;;4982033;28;20501;-87
2021/09/15 22:12:02;;;;;;;4.17;2.60;;;;;;;;;;4990553;28;20417;-83
2021/09/15 22:14:30;;;;;;;3.07;1.97;;;;;;;;;;4991432;28;20410;-83
2021/09/15 22:16:57;;;;;;;3.10;2.27;;;;;;;;;;4994536;28;20436;-82
2021/09/15 22:19:24;;;;;;;5.30;2.67;;;;;;;;;;4993764;28;20470;-84
2021/09/15 22:21:52;;;;;;;5.47;2.63;;;;;;;;;;4994640;28;20425;-84
2021/09/15 22:24:19;;;;;;;2.83;2.23;;;;;;;;;;4994980;28;20836;-84
2021/09/15 22:26:46;;;;;;;5.70;2.20;;;;;;;;;;4995939;28;20425;-83
2021/09/15 22:29:13;;;;;;;4.77;2.27;;;;;;;;;;4996089;28;20976;-83
2021/09/15 22:31:42;;;;;;;3.00;2.20;;;;;;;;;;4996246;28;20442;-84
2021/09/15 22:34:09;;;;;;;4.57;2.50;;;;;;;;;;4991135;28;20506;-84
2021/09/15 22:36:36;;;;;;;2.37;2.17;;;;;;;;;;4990939;28;20467;-84
2021/09/15 22:39:05;;;;;;;4.13;2.00;;;;;;;;;;4973934;28;20525;-81
2021/09/15 22:41:32;;;;;;;3.27;2.17;;;;;;;;;;4977203;28;20448;-81
2021/09/15 22:43:59;;;;;;;3.27;2.67;;;;;;;;;;4996349;28;20804;-85
2021/09/15 22:46:27;;;;;;;6.63;2.57;;;;;;;;;;4998563;28;20459;-82
2021/09/15 22:48:55;;;;;;;2.60;1.87;;;;;;;;;;4999630;28;20478;-82
2021/09/15 22:51:22;;;;;;;3.80;2.00;;;;;;;;;;4995401;28;20448;-87
2021/09/15 22:53:49;;;;;;;4.33;1.97;;;;;;;;;;4995638;28;20418;-83
2021/09/15 22:56:17;;;;;;;8.27;3.10;;;;;;;;;;4990787;28;20436;-86
2021/09/15 22:58:44;;;;;;;7.73;2.83;;;;;;;;;;4989873;28;20439;-84
2021/09/15 23:01:11;;;;;;;3.97;2.20;;;;;;;;;;4992730;28;20422;-84
2021/09/15 23:03:38;;;;;;;6.10;2.30;;;;;;;;;;4993449;28;20428;-84
2021/09/15 23:06:07;;;;;;;3.33;1.80;;;;;;;;;;4993612;28;20429;-87
2021/09/15 23:08:34;;;;;;;4.63;1.80;;;;;;;;;;4993390;28;20934;-84
2021/09/15 23:11:02;;;;;;;4.50;2.07;;;;;;;;;;4995521;28;20458;-81
2021/09/15 23:13:29;;;;;;;2.80;2.13;;;;;;;;;;4995293;28;20453;-86
2021/09/15 23:15:56;;;;;;;6.83;2.20;;;;;;;;;;4995311;28;20920;-81
2021/09/15 23:18:24;;;;;;;6.17;2.30;;;;;;;;;;4991283;28;20435;-83
2021/09/15 23:20:51;;;;;;;2.77;1.93;;;;;;;;;;4988651;28;20426;-86
2021/09/15 23:23:20;;;;;;;2.70;2.30;;;;;;;;;;4986696;28;20423;-84
2021/09/15 23:25:47;;;;;;;2.83;2.23;;;;;;;;;;4993163;28;20444;-81
2021/09/15 23:28:15;;;;;;;2.60;1.83;;;;;;;;;;4993138;28;20473;-82
2021/09/15 23:30:42;;;;;;;6.40;2.70;;;;;;;;;;4993252;28;20469;-84
2021/09/15 23:33:09;;;;;;;5.83;2.03;;;;;;;;;;4994878;28;20428;-84
2021/09/15 23:35:40;;;;;;;3.03;2.23;;;;;;;;;;4994827;28;20435;-80
2021/09/15 23:38:07;;;;;;;4.37;1.90;;;;;;;;;;4994749;28;20408;-84
2021/09/15 23:40:35;;;;;;;3.97;2.40;;;;;;;;;;4991875;28;20476;-84
2021/09/15 23:43:02;;;;;;;4.67;2.40;;;;;;;;;;4988246;28;20421;-82
2021/09/15 23:45:30;;;;;;;4.00;2.13;;;;;;;;;;4992349;28;20419;-86
2021/09/15 23:47:57;;;;;;;6.00;2.63;;;;;;;;;;4991968;28;20513;-85
2021/09/15 23:50:24;;;;;;;2.53;2.03;;;;;;;;;;4991783;28;20467;-81
2021/09/15 23:52:51;;;;;;;3.20;2.07;;;;;;;;;;4991076;28;21007;-83
2021/09/15 23:55:20;;;;;;;3.70;1.73;;;;;;;;;;4990426;28;20414;-87
2021/09/15 23:57:49;;;;;;;3.60;1.90;;;;;;;;;;4988211;28;20902;-85
